Time;durP1;ratioP1;P1;durP2;ratioP2;P2;SDS_P1;SDS_P2;PMS_P1;PMS_P2;Temp;Humidity;BMP_temperature;BMP_pressure;BME280_temperature;BME280_humidity;BME280_pressure;Samples;Min_cycle;Max_cycle;Signal;HPM_P1;HPM_P2
2023/04/16 00:00:38;;;;;;;;;;;;;;;8.97;100.00;102051.13;10416556;28;19925;-65
2023/04/16 00:05:40;;;;;;;;;;;;;;;8.90;100.00;102046.09;10416750;28;19956;-65
2023/04/16 00:10:43;;;;;;;;;;;;;;;8.97;100.00;102044.16;10451127;28;19924;-65
2023/04/16 00:15:45;;;;;;;;;;;;;;;8.93;100.00;102043.38;10458018;28;19999;-65
2023/04/16 00:20:47;;;;;;;;;;;;;;;8.66;100.00;102041.63;10448669;28;19925;-66
2023/04/16 00:25:49;;;;;;;;;;;;;;;8.73;100.00;102046.59;10415943;28;20292;-65
2023/04/16 00:30:52;;;;;;;;;;;;;;;9.00;100.00;102049.28;10416024;28;20296;-65
2023/04/16 00:35:54;;;;;;;;;;;;;;;9.06;100.00;102048.22;10442741;28;19970;-65
2023/04/16 00:40:57;;;;;;;;;;;;;;;8.97;100.00;102045.91;10457274;28;19979;-65
2023/04/16 00:45:59;;;;;;;;;;;;;;;8.83;100.00;102043.72;10465293;22;19951;-65
2023/04/16 00:51:05;;;;;;;;;;;;;;;9.04;100.00;102048.28;10416030;28;19925;-65
2023/04/16 00:56:07;;;;;;;;;;;;;;;9.23;100.00;102053.81;10414209;28;19948;-65
2023/04/16 01:01:09;;;;;;;;;;;;;;;9.18;100.00;102047.00;10423441;28;19939;-65
2023/04/16 01:06:12;;;;;;;;;;;;;;;8.91;100.00;102060.88;10455709;28;19948;-65
2023/04/16 01:11:14;;;;;;;;;;;;;;;8.99;100.00;102057.16;10420213;28;19925;-65
2023/04/16 01:16:17;;;;;;;;;;;;;;;8.87;100.00;102046.19;10423170;28;19925;-65
2023/04/16 01:21:19;;;;;;;;;;;;;;;9.02;100.00;102052.69;10422404;28;19925;-65
2023/04/16 01:26:21;;;;;;;;;;;;;;;9.02;100.00;102054.47;10422608;28;19940;-65
2023/04/16 01:31:23;;;;;;;;;;;;;;;9.04;100.00;102050.88;10421941;28;19925;-65
2023/04/16 01:36:26;;;;;;;;;;;;;;;9.00;100.00;102059.72;10420944;28;20380;-65
2023/04/16 01:41:29;;;;;;;;;;;;;;;9.21;100.00;102058.22;10422565;28;19925;-65
2023/04/16 01:46:32;;;;;;;;;;;;;;;9.04;100.00;102048.28;10421158;28;19971;-65
2023/04/16 01:51:34;;;;;;;;;;;;;;;9.22;100.00;102051.22;10422484;28;19925;-65
2023/04/16 01:56:36;;;;;;;;;;;;;;;9.25;100.00;102049.38;10440168;28;20388;-65
2023/04/16 02:01:39;;;;;;;;;;;;;;;9.10;100.00;102057.69;10443644;28;19925;-65
2023/04/16 02:06:41;;;;;;;;;;;;;;;9.00;100.00;102061.50;10432056;28;19924;-65
2023/04/16 02:11:43;;;;;;;;;;;;;;;8.92;100.00;102064.34;10462220;28;20331;-65
2023/04/16 02:16:45;;;;;;;;;;;;;;;9.01;100.00;102065.81;10461285;28;20277;-65
2023/04/16 02:21:48;;;;;;;;;;;;;;;9.02;100.00;102065.75;10459705;28;20410;-65
2023/04/16 02:26:50;;;;;;;;;;;;;;;9.07;100.00;102065.63;10460420;28;19929;-65
2023/04/16 02:31:52;;;;;;;;;;;;;;;9.18;100.00;102062.66;10462027;28;19925;-65
2023/04/16 02:36:57;;;;;;;;;;;;;;;9.01;100.00;102061.47;10460625;28;19929;-65
2023/04/16 02:42:01;;;;;;;;;;;;;;;8.94;100.00;102065.13;10435415;28;19925;-65
2023/04/16 02:47:03;;;;;;;;;;;;;;;9.07;100.00;102061.25;10420105;28;19963;-65
2023/04/16 02:52:05;;;;;;;;;;;;;;;8.89;100.00;102069.63;10419927;28;19927;-65
2023/04/16 02:57:07;;;;;;;;;;;;;;;9.31;100.00;102061.38;10419619;28;19987;-65
2023/04/16 03:02:10;;;;;;;;;;;;;;;9.34;100.00;102065.66;10418868;28;19932;-65
2023/04/16 03:07:12;;;;;;;;;;;;;;;9.00;100.00;102067.56;10449779;28;19946;-65
2023/04/16 03:12:14;;;;;;;;;;;;;;;8.83;100.00;102077.69;10459326;28;19978;-65
2023/04/16 03:17:17;;;;;;;;;;;;;;;9.17;100.00;102082.72;10460298;28;19925;-65
2023/04/16 03:22:19;;;;;;;;;;;;;;;9.33;100.00;102082.25;10424283;28;20015;-65
2023/04/16 03:27:21;;;;;;;;;;;;;;;9.17;100.00;102077.50;10418041;28;20273;-65
2023/04/16 03:32:24;;;;;;;;;;;;;;;9.24;100.00;102086.00;10417433;28;19925;-65
2023/04/16 03:37:26;;;;;;;;;;;;;;;8.93;100.00;102092.19;10417697;28;19931;-65
2023/04/16 03:42:28;;;;;;;;;;;;;;;8.99;100.00;102097.19;10417962;28;19932;-65
2023/04/16 03:47:30;;;;;;;;;;;;;;;9.24;100.00;102091.22;10417671;28;19929;-64
2023/04/16 03:52:32;;;;;;;;;;;;;;;9.19;100.00;102091.38;10453376;28;19925;-65
2023/04/16 03:57:35;;;;;;;;;;;;;;;9.15;100.00;102095.00;10456953;28;20372;-65
2023/04/16 04:02:37;;;;;;;;;;;;;;;9.22;100.00;102098.28;10416846;28;19925;-65
2023/04/16 04:07:40;;;;;;;;;;;;;;;9.04;100.00;102095.28;10450775;28;19960;-65
2023/04/16 04:12:42;;;;;;;;;;;;;;;9.15;100.00;102089.75;10449837;28;19979;-65
2023/04/16 04:17:44;;;;;;;;;;;;;;;9.03;100.00;102092.75;10418017;28;19932;-65
2023/04/16 04:22:47;;;;;;;;;;;;;;;9.23;100.00;102100.84;10455920;28;20283;-65
2023/04/16 04:27:49;;;;;;;;;;;;;;;9.13;100.00;102104.63;10457175;28;19925;-65
2023/04/16 04:32:51;;;;;;;;;;;;;;;8.85;100.00;102109.81;10455855;28;19994;-65
2023/04/16 04:37:54;;;;;;;;;;;;;;;9.04;100.00;102115.34;10436395;28;19966;-65
2023/04/16 04:42:56;;;;;;;;;;;;;;;8.97;100.00;102114.69;10455856;28;19974;-65
2023/04/16 04:47:58;;;;;;;;;;;;;;;9.34;100.00;102113.56;10456505;28;19924;-65
2023/04/16 04:53:00;;;;;;;;;;;;;;;8.93;100.00;102124.38;10447204;28;20028;-65
2023/04/16 04:58:03;;;;;;;;;;;;;;;9.08;100.00;102130.91;10414892;28;19929;-65
2023/04/16 05:03:08;;;;;;;;;;;;;;;9.02;100.00;102138.91;10440029;28;19978;-65
2023/04/16 05:08:10;;;;;;;;;;;;;;;9.15;100.00;102141.19;10456380;28;20454;-65
2023/04/16 05:13:12;;;;;;;;;;;;;;;9.13;100.00;102140.34;10427921;28;19979;-65
2023/04/16 05:18:15;;;;;;;;;;;;;;;9.04;100.00;102149.31;10413771;28;19998;-65
2023/04/16 05:23:17;;;;;;;;;;;;;;;9.03;100.00;102152.84;10414865;28;20376;-65
2023/04/16 05:28:19;;;;;;;;;;;;;;;9.24;100.00;102153.94;10415382;28;19929;-65
2023/04/16 05:33:22;;;;;;;;;;;;;;;9.41;100.00;102145.59;10437066;28;19978;-65
2023/04/16 05:38:24;;;;;;;;;;;;;;;9.15;100.00;102152.47;10446301;28;19925;-65
2023/04/16 05:43:26;;;;;;;;;;;;;;;9.38;100.00;102153.53;10414898;28;19929;-65
2023/04/16 05:48:28;;;;;;;;;;;;;;;9.47;100.00;102154.09;10414259;28;19929;-65
2023/04/16 05:53:31;;;;;;;;;;;;;;;9.60;100.00;102158.94;10426057;28;19974;-65
2023/04/16 05:58:33;;;;;;;;;;;;;;;9.59;100.00;102155.47;10461233;28;19970;-65
2023/04/16 06:03:35;;;;;;;;;;;;;;;9.60;100.00;102158.94;10463130;28;19932;-65
2023/04/16 06:08:37;;;;;;;;;;;;;;;9.36;100.00;102163.19;10459335;28;19932;-65
2023/04/16 06:13:40;;;;;;;;;;;;;;;9.43;100.00;102169.91;10425935;28;19925;-65
2023/04/16 06:18:42;;;;;;;;;;;;;;;9.57;100.00;102179.97;10419606;28;19975;-65
2023/04/16 06:23:45;;;;;;;;;;;;;;;9.43;100.00;102183.88;10432732;28;19932;-65
2023/04/16 06:28:47;;;;;;;;;;;;;;;9.58;100.00;102189.50;10446213;28;19964;-65
2023/04/16 06:33:49;;;;;;;;;;;;;;;9.63;100.00;102192.84;10420912;28;19925;-65
2023/04/16 06:38:52;;;;;;;;;;;;;;;9.35;100.00;102200.69;10420001;28;20296;-67
2023/04/16 06:43:54;;;;;;;;;;;;;;;9.50;100.00;102205.44;10423309;28;19928;-69
2023/04/16 06:48:56;;;;;;;;;;;;;;;9.44;100.00;102210.84;10438335;28;19925;-69
2023/04/16 06:53:58;;;;;;;;;;;;;;;9.82;100.00;102214.06;10420574;28;19925;-69
2023/04/16 06:59:00;;;;;;;;;;;;;;;10.09;100.00;102214.09;10419244;28;20328;-69
2023/04/16 07:04:03;;;;;;;;;;;;;;;9.93;100.00;102219.78;10421106;28;19955;-69
2023/04/16 07:09:05;;;;;;;;;;;;;;;9.81;100.00;102221.03;10459581;28;19933;-69
2023/04/16 07:14:07;;;;;;;;;;;;;;;10.19;100.00;102224.19;10459353;28;19931;-69
2023/04/16 07:19:10;;;;;;;;;;;;;;;9.99;100.00;102224.00;10459652;28;19929;-69
2023/04/16 07:24:12;;;;;;;;;;;;;;;10.32;100.00;102237.78;10432627;28;19925;-69
2023/04/16 07:29:14;;;;;;;;;;;;;;;10.21;100.00;102242.47;10445893;28;20379;-70
2023/04/16 07:34:17;;;;;;;;;;;;;;;10.05;100.00;102239.47;10458774;28;19925;-69
2023/04/16 07:39:19;;;;;;;;;;;;;;;10.25;100.00;102241.44;10457217;28;20265;-70
2023/04/16 07:44:21;;;;;;;;;;;;;;;10.62;100.00;102239.38;10459105;28;19929;-70
2023/04/16 07:49:24;;;;;;;;;;;;;;;10.53;100.00;102238.78;10453308;28;19933;-69
2023/04/16 07:54:26;;;;;;;;;;;;;;;10.82;100.00;102252.63;10417670;28;19925;-69
2023/04/16 07:59:30;;;;;;;;;;;;;;;11.07;100.00;102250.00;10437454;28;20368;-69
2023/04/16 08:04:32;;;;;;;;;;;;;;;10.97;100.00;102259.09;10457807;28;19925;-70
2023/04/16 08:09:35;;;;;;;;;;;;;;;10.85;100.00;102267.41;10451680;28;19971;-69
2023/04/16 08:14:37;;;;;;;;;;;;;;;10.83;100.00;102264.84;10415213;28;19956;-70
2023/04/16 08:19:39;;;;;;;;;;;;;;;10.93;100.00;102273.25;10419449;28;19924;-69
2023/04/16 08:24:41;;;;;;;;;;;;;;;10.94;100.00;102270.56;10449682;28;19932;-69
2023/04/16 08:29:43;;;;;;;;;;;;;;;11.18;100.00;102285.44;10432740;28;19925;-69
2023/04/16 08:34:46;;;;;;;;;;;;;;;11.80;100.00;102284.88;10414638;28;19925;-70
2023/04/16 08:39:48;;;;;;;;;;;;;;;12.09;98.11;102277.66;10415731;28;19932;-70
2023/04/16 08:44:52;;;;;;;;;;;;;;;11.78;96.90;102285.84;10415006;28;20346;-68
2023/04/16 08:49:54;;;;;;;;;;;;;;;11.85;98.83;102290.81;10415206;28;20308;-69
2023/04/16 08:55:05;;;;;;;;;;;;;;;12.34;95.32;102292.38;10415352;28;20000;-70
2023/04/16 09:00:08;;;;;;;;;;;;;;;11.97;97.54;102297.38;10425970;28;19932;-70
2023/04/16 09:05:13;;;;;;;;;;;;;;;12.45;93.41;102306.78;10408224;28;20384;-70
2023/04/16 09:10:15;;;;;;;;;;;;;;;11.96;95.94;102314.03;10413897;28;19925;-69
2023/04/16 09:15:17;;;;;;;;;;;;;;;11.98;93.14;102313.97;10414497;28;19979;-69
2023/04/16 09:20:19;;;;;;;;;;;;;;;11.62;99.42;102324.94;10445397;28;19974;-70
2023/04/16 09:25:22;;;;;;;;;;;;;;;11.63;98.51;102317.00;10453534;28;19924;-70
2023/04/16 09:30:24;;;;;;;;;;;;;;;12.07;97.29;102313.63;10456979;28;19925;-70
2023/04/16 09:35:27;;;;;;;;;;;;;;;11.86;97.45;102321.34;10453263;28;19925;-70
2023/04/16 09:40:30;;;;;;;;;;;;;;;11.81;96.91;102328.56;10421114;28;19932;-70
2023/04/16 09:45:32;;;;;;;;;;;;;;;12.22;98.69;102334.00;10428848;28;20383;-70
2023/04/16 09:50:35;;;;;;;;;;;;;;;12.59;93.55;102326.38;10461936;28;20268;-70
2023/04/16 09:55:37;;;;;;;;;;;;;;;13.35;90.03;102329.31;10449478;28;20384;-70
2023/04/16 10:00:39;;;;;;;;;;;;;;;13.62;84.72;102327.19;10421394;28;20012;-70
2023/04/16 10:05:44;;;;;;;;;;;;;;;13.77;84.32;102327.41;10420219;28;19979;-70
2023/04/16 10:10:47;;;;;;;;;;;;;;;14.86;80.09;102320.34;10436526;28;19929;-70
2023/04/16 10:15:49;;;;;;;;;;;;;;;15.94;75.86;102326.97;10434331;28;19924;-70
2023/04/16 10:20:51;;;;;;;;;;;;;;;13.91;79.51;102332.88;10419540;28;20269;-70
2023/04/16 10:25:54;;;;;;;;;;;;;;;14.74;80.86;102326.22;10420421;28;19929;-70
2023/04/16 10:30:58;;;;;;;;;;;;;;;16.11;74.71;102326.03;10449442;28;19925;-70
2023/04/16 10:36:07;;;;;;;;;;;;;;;18.56;69.97;102317.13;10453337;28;19971;-70
2023/04/16 10:41:09;;;;;;;;;;;;;;;14.93;74.13;102323.53;10461642;28;19924;-70
2023/04/16 10:46:25;;;;;;;;;;;;;;;15.68;73.09;102320.47;10461410;28;19929;-70
2023/04/16 10:51:34;;;;;;;;;;;;;;;16.74;73.31;102314.44;10423062;28;19932;-70
2023/04/16 10:56:36;;;;;;;;;;;;;;;16.81;67.27;102318.44;10424639;28;20302;-70
2023/04/16 11:01:42;;;;;;;;;;;;;;;16.50;69.71;102314.09;10460329;28;20261;-70
2023/04/16 11:07:03;;;;;;;;;;;;;;;17.92;69.04;102310.78;10459279;28;20323;-70
2023/04/16 11:12:05;;;;;;;;;;;;;;;17.95;65.99;102311.41;10458794;28;19980;-70
2023/04/16 11:17:08;;;;;;;;;;;;;;;16.21;70.27;102302.59;10455833;28;20299;-70
2023/04/16 11:22:11;;;;;;;;;;;;;;;16.30;69.61;102305.53;10459447;28;20380;-70
2023/04/16 11:27:14;;;;;;;;;;;;;;;17.78;67.76;102296.56;10438390;28;19932;-70
2023/04/16 11:32:21;;;;;;;;;;;;;;;17.01;67.30;102296.09;10459718;28;19971;-71
2023/04/16 11:37:33;;;;;;;;;;;;;;;16.74;66.81;102303.84;10432341;28;20008;-70
2023/04/16 11:42:36;;;;;;;;;;;;;;;17.68;64.75;102302.56;10418043;28;19929;-70
2023/04/16 11:47:50;;;;;;;;;;;;;;;16.97;67.66;102305.16;10418478;28;19925;-70
2023/04/16 11:52:54;;;;;;;;;;;;;;;16.44;69.28;102303.88;10414646;28;19932;-70
2023/04/16 11:57:56;;;;;;;;;;;;;;;15.53;70.74;102314.22;10417536;28;19931;-70
2023/04/16 12:02:58;;;;;;;;;;;;;;;15.85;71.10;102315.13;10416151;28;19975;-70
2023/04/16 12:08:02;;;;;;;;;;;;;;;16.15;69.76;102316.97;10416620;28;20268;-70
2023/04/16 12:13:11;;;;;;;;;;;;;;;16.18;70.74;102313.31;10416429;28;19925;-70
2023/04/16 12:18:15;;;;;;;;;;;;;;;14.55;73.99;102321.00;10416205;28;20368;-70
2023/04/16 12:23:27;;;;;;;;;;;;;;;13.79;75.66;102323.78;10415586;28;20384;-70
2023/04/16 12:28:30;;;;;;;;;;;;;;;13.73;76.50;102331.97;10416814;28;19925;-70
2023/04/16 12:33:32;;;;;;;;;;;;;;;14.45;75.52;102331.16;10416555;28;19933;-70
2023/04/16 12:38:35;;;;;;;;;;;;;;;14.30;75.96;102329.28;10414584;28;19925;-70
2023/04/16 12:43:37;;;;;;;;;;;;;;;14.91;74.41;102327.16;10448829;28;19955;-70
2023/04/16 12:48:40;;;;;;;;;;;;;;;15.12;73.79;102333.97;10429222;28;19925;-70
2023/04/16 12:53:42;;;;;;;;;;;;;;;14.19;77.13;102332.44;10415472;28;19948;-70
2023/04/16 13:03:48;;;;;;;;;;;;;;;14.72;78.33;102336.00;10289342;28;19927;-61
2023/04/16 13:08:51;;;;;;;;;;;;;;;14.49;78.15;102334.47;10301128;28;19932;-61
2023/04/16 13:13:53;;;;;;;;;;;;;;;15.54;75.86;102337.06;10299009;28;19980;-62
2023/04/16 13:18:56;;;;;;;;;;;;;;;15.44;75.66;102328.78;10262086;29;19934;-62
2023/04/16 13:23:58;;;;;;;;;;;;;;;14.33;78.11;102326.50;10291666;28;19934;-61
2023/04/16 13:29:00;;;;;;;;;;;;;;;15.40;75.35;102324.59;10301038;28;19988;-62
2023/04/16 13:34:03;;;;;;;;;;;;;;;15.04;76.54;102330.88;10301384;28;19957;-62
2023/04/16 13:39:10;;;;;;;;;;;;;;;15.28;75.75;102330.50;10298758;28;19926;-61
2023/04/16 13:44:12;;;;;;;;;;;;;;;15.45;75.66;102325.22;10299994;28;19934;-62
2023/04/16 13:49:15;;;;;;;;;;;;;;;15.52;74.58;102329.22;10300848;28;19935;-62
2023/04/16 13:54:17;;;;;;;;;;;;;;;16.65;73.40;102317.63;10300052;28;20398;-62
2023/04/16 13:59:19;;;;;;;;;;;;;;;16.38;73.24;102310.38;10301605;28;19930;-62
2023/04/16 14:04:22;;;;;;;;;;;;;;;16.25;71.39;102317.31;10341117;28;19930;-61
2023/04/16 14:09:25;;;;;;;;;;;;;;;15.90;71.75;102315.75;10339765;28;19980;-62
2023/04/16 14:14:27;;;;;;;;;;;;;;;15.54;73.95;102319.41;10341197;28;19953;-62
2023/04/16 14:19:29;;;;;;;;;;;;;;;16.39;72.17;102309.44;10337893;28;20340;-62
2023/04/16 14:24:31;;;;;;;;;;;;;;;16.47;69.88;102303.69;10339056;28;19933;-61
2023/04/16 14:29:35;;;;;;;;;;;;;;;15.79;72.47;102320.75;10339398;28;20293;-61
2023/04/16 14:34:37;;;;;;;;;;;;;;;16.86;67.26;102313.75;10340365;28;19930;-62
2023/04/16 14:39:40;;;;;;;;;;;;;;;16.84;69.90;102318.25;10338833;28;19932;-62
2023/04/16 14:44:42;;;;;;;;;;;;;;;15.56;71.23;102327.25;10338948;28;19972;-61
2023/04/16 14:49:44;;;;;;;;;;;;;;;18.41;68.02;102317.31;10338244;28;19941;-62
2023/04/16 14:54:46;;;;;;;;;;;;;;;17.51;67.08;102314.25;10340724;28;19937;-62
2023/04/16 14:59:49;;;;;;;;;;;;;;;16.54;68.96;102320.91;10304027;28;19934;-61
2023/04/16 15:04:51;;;;;;;;;;;;;;;16.81;69.33;102329.03;10308274;28;19926;-61
2023/04/16 15:09:54;;;;;;;;;;;;;;;15.88;70.23;102335.22;10338620;28;19925;-62
2023/04/16 15:14:56;;;;;;;;;;;;;;;16.41;69.22;102336.63;10339099;28;19926;-62
2023/04/16 15:19:59;;;;;;;;;;;;;;;16.44;68.33;102333.81;10338175;28;20012;-62
2023/04/16 15:25:01;;;;;;;;;;;;;;;16.16;70.14;102342.47;10343462;28;19932;-62
2023/04/16 15:30:05;;;;;;;;;;;;;;;15.08;73.26;102342.09;10339792;28;19932;-62
2023/04/16 15:35:07;;;;;;;;;;;;;;;14.52;76.16;102342.25;10335921;28;20336;-62
2023/04/16 15:40:12;;;;;;;;;;;;;;;14.96;75.05;102339.19;10337712;28;20021;-62
2023/04/16 15:45:14;;;;;;;;;;;;;;;14.31;76.20;102344.16;10336618;28;19926;-63
2023/04/16 15:50:19;;;;;;;;;;;;;;;13.82;77.97;102336.81;10336305;28;20422;-65
2023/04/16 15:55:21;;;;;;;;;;;;;;;13.81;79.22;102343.00;10335082;28;20321;-62
2023/04/16 16:00:23;;;;;;;;;;;;;;;14.45;77.25;102339.06;10335955;28;19929;-63
2023/04/16 16:05:26;;;;;;;;;;;;;;;13.86;77.80;102348.06;10335866;28;19929;-62
2023/04/16 16:10:28;;;;;;;;;;;;;;;13.81;79.13;102353.53;10338199;28;20285;-61
2023/04/16 16:15:31;;;;;;;;;;;;;;;13.44;80.50;102352.56;10334530;28;20321;-60
2023/04/16 16:20:33;;;;;;;;;;;;;;;14.07;78.42;102354.94;10335482;28;19926;-60
2023/04/16 16:25:36;;;;;;;;;;;;;;;13.74;78.49;102357.38;10352037;28;19925;-61
2023/04/16 16:30:38;;;;;;;;;;;;;;;13.32;80.57;102350.50;10335017;28;19926;-61
2023/04/16 16:35:40;;;;;;;;;;;;;;;13.97;78.60;102365.97;10334944;28;19925;-61
2023/04/16 16:40:42;;;;;;;;;;;;;;;14.35;77.23;102355.41;10334375;28;19930;-61
2023/04/16 16:45:45;;;;;;;;;;;;;;;14.55;75.72;102355.25;10332635;28;19932;-61
2023/04/16 16:50:47;;;;;;;;;;;;;;;14.10;80.54;102365.34;10335151;28;19929;-61
2023/04/16 16:55:49;;;;;;;;;;;;;;;13.96;79.04;102359.84;10334648;28;19925;-61
2023/04/16 17:00:52;;;;;;;;;;;;;;;13.82;81.51;102365.78;10335303;28;19926;-61
2023/04/16 17:05:54;;;;;;;;;;;;;;;13.78;79.85;102365.97;10334154;28;19926;-61
2023/04/16 17:10:56;;;;;;;;;;;;;;;13.40;81.58;102358.03;10300886;28;19926;-61
2023/04/16 17:15:58;;;;;;;;;;;;;;;13.23;83.64;102364.88;10333926;28;19925;-61
2023/04/16 17:21:00;;;;;;;;;;;;;;;13.51;81.38;102368.94;10349726;28;19926;-61
2023/04/16 17:26:03;;;;;;;;;;;;;;;13.04;82.30;102363.94;10333863;28;19926;-61
2023/04/16 17:31:07;;;;;;;;;;;;;;;12.99;84.78;102369.41;10317595;28;20270;-61
2023/04/16 17:36:09;;;;;;;;;;;;;;;13.39;82.10;102375.59;10333310;28;20258;-61
2023/04/16 17:41:11;;;;;;;;;;;;;;;12.84;84.50;102376.16;10336140;28;19933;-61
2023/04/16 17:46:13;;;;;;;;;;;;;;;12.78;85.44;102385.16;10327592;28;19927;-61
2023/04/16 17:51:16;;;;;;;;;;;;;;;12.57;84.69;102384.25;10310247;28;19953;-61
2023/04/16 17:56:18;;;;;;;;;;;;;;;12.25;87.43;102398.66;10341257;28;19926;-61
2023/04/16 18:01:20;;;;;;;;;;;;;;;12.23;87.31;102390.84;10334041;28;20341;-64
2023/04/16 18:06:23;;;;;;;;;;;;;;;12.26;86.07;102385.47;10300364;28;19933;-61
2023/04/16 18:11:25;;;;;;;;;;;;;;;11.97;88.26;102385.75;10300145;28;19930;-61
2023/04/16 18:16:28;;;;;;;;;;;;;;;11.75;90.06;102394.41;10309342;28;20392;-62
2023/04/16 18:21:30;;;;;;;;;;;;;;;11.28;92.81;102404.81;10340259;28;19952;-61
2023/04/16 18:26:33;;;;;;;;;;;;;;;11.28;93.54;102399.56;10339851;28;19926;-61
2023/04/16 18:31:37;;;;;;;;;;;;;;;10.89;97.69;102408.75;10339089;28;19930;-61
2023/04/16 18:36:39;;;;;;;;;;;;;;;10.97;98.25;102408.47;10341561;28;19972;-61
2023/04/16 18:41:42;;;;;;;;;;;;;;;10.90;96.95;102417.47;10354301;28;19938;-61
2023/04/16 18:46:45;;;;;;;;;;;;;;;10.85;98.31;102427.25;10339032;28;19933;-61
2023/04/16 18:51:47;;;;;;;;;;;;;;;11.10;94.46;102422.88;10339942;28;19929;-61
2023/04/16 18:56:49;;;;;;;;;;;;;;;10.62;99.54;102434.06;10317577;28;19926;-61
2023/04/16 19:01:52;;;;;;;;;;;;;;;10.51;100.00;102439.63;10279972;28;19926;-61
2023/04/16 19:06:54;;;;;;;;;;;;;;;10.61;100.00;102448.06;10338307;28;20380;-60
2023/04/16 19:11:57;;;;;;;;;;;;;;;10.57;100.00;102446.44;10337934;28;19957;-61
2023/04/16 19:16:59;;;;;;;;;;;;;;;10.60;100.00;102449.81;10352710;28;19926;-61
2023/04/16 19:22:01;;;;;;;;;;;;;;;10.47;100.00;102452.88;10335720;28;20305;-60
2023/04/16 19:27:04;;;;;;;;;;;;;;;10.38;100.00;102460.09;10338015;28;19968;-60
2023/04/16 19:32:06;;;;;;;;;;;;;;;10.31;100.00;102455.06;10337967;28;19929;-60
2023/04/16 19:37:08;;;;;;;;;;;;;;;10.47;100.00;102455.47;10336659;28;19925;-60
2023/04/16 19:42:10;;;;;;;;;;;;;;;10.36;100.00;102454.06;10336806;28;19926;-60
2023/04/16 19:47:13;;;;;;;;;;;;;;;10.31;100.00;102455.06;10338807;28;20305;-60
2023/04/16 19:52:15;;;;;;;;;;;;;;;10.26;100.00;102465.66;10335813;28;19926;-61
2023/04/16 19:57:17;;;;;;;;;;;;;;;10.14;100.00;102460.81;10360801;28;19979;-61
2023/04/16 20:02:20;;;;;;;;;;;;;;;10.58;100.00;102471.75;10341706;28;19972;-60
2023/04/16 20:07:22;;;;;;;;;;;;;;;10.22;100.00;102475.38;10335274;28;20365;-61
2023/04/16 20:12:24;;;;;;;;;;;;;;;10.14;100.00;102476.50;10336085;28;19930;-60
2023/04/16 20:17:27;;;;;;;;;;;;;;;10.09;100.00;102489.72;10334142;28;19930;-60
2023/04/16 20:22:29;;;;;;;;;;;;;;;10.24;100.00;102485.81;10335806;28;19926;-61
2023/04/16 20:27:31;;;;;;;;;;;;;;;10.30;100.00;102490.00;10335327;28;19926;-60
2023/04/16 20:32:34;;;;;;;;;;;;;;;10.16;100.00;102495.63;10349633;28;20339;-61
